sensor_id;sensor_type;location;lat;lon;timestamp;temperature;humidity
20680;DHT22;10499;47.494;7.608;2022-11-20T00:02:24;8.00;99.90
20680;DHT22;10499;47.494;7.608;2022-11-20T00:04:50;8.00;99.90
20680;DHT22;10499;47.494;7.608;2022-11-20T00:07:15;7.90;99.90
20680;DHT22;10499;47.494;7.608;2022-11-20T00:09:41;7.90;99.90
20680;DHT22;10499;47.494;7.608;2022-11-20T00:12:07;7.90;99.90
20680;DHT22;10499;47.494;7.608;2022-11-20T00:14:32;7.90;99.90
20680;DHT22;10499;47.494;7.608;2022-11-20T00:16:58;7.90;99.90
20680;DHT22;10499;47.494;7.608;2022-11-20T00:19:23;7.90;99.90
20680;DHT22;10499;47.494;7.608;2022-11-20T00:21:49;7.90;99.90
20680;DHT22;10499;47.494;7.608;2022-11-20T00:24:16;7.80;99.90
20680;DHT22;10499;47.494;7.608;2022-11-20T00:26:42;7.70;99.90
20680;DHT22;10499;47.494;7.608;2022-11-20T00:29:09;7.70;99.90
20680;DHT22;10499;47.494;7.608;2022-11-20T00:31:35;7.70;99.90
20680;DHT22;10499;47.494;7.608;2022-11-20T00:34:01;7.70;99.90
20680;DHT22;10499;47.494;7.608;2022-11-20T00:36:29;7.70;99.90
20680;DHT22;10499;47.494;7.608;2022-11-20T00:38:57;7.70;99.90
20680;DHT22;10499;47.494;7.608;2022-11-20T00:41:24;7.60;99.90
20680;DHT22;10499;47.494;7.608;2022-11-20T00:43:52;7.60;99.90
20680;DHT22;10499;47.494;7.608;2022-11-20T00:46:20;7.60;99.90
20680;DHT22;10499;47.494;7.608;2022-11-20T00:48:46;7.60;99.90
20680;DHT22;10499;47.494;7.608;2022-11-20T00:51:14;7.60;99.90
20680;DHT22;10499;47.494;7.608;2022-11-20T00:53:40;7.60;99.90
20680;DHT22;10499;47.494;7.608;2022-11-20T00:56:09;7.60;99.90
20680;DHT22;10499;47.494;7.608;2022-11-20T00:58:37;7.60;99.90
20680;DHT22;10499;47.494;7.608;2022-11-20T01:01:12;7.50;99.90
20680;DHT22;10499;47.494;7.608;2022-11-20T01:03:40;7.50;99.90
20680;DHT22;10499;47.494;7.608;2022-11-20T01:06:12;7.60;99.90
20680;DHT22;10499;47.494;7.608;2022-11-20T01:08:39;7.50;99.90
20680;DHT22;10499;47.494;7.608;2022-11-20T01:11:14;7.50;99.90
20680;DHT22;10499;47.494;7.608;2022-11-20T01:13:40;7.50;99.90
20680;DHT22;10499;47.494;7.608;2022-11-20T01:18:34;7.50;99.90
20680;DHT22;10499;47.494;7.608;2022-11-20T01:21:26;7.50;99.90
20680;DHT22;10499;47.494;7.608;2022-11-20T01:23:52;7.50;99.90
20680;DHT22;10499;47.494;7.608;2022-11-20T01:26:20;7.50;99.90
20680;DHT22;10499;47.494;7.608;2022-11-20T01:28:47;7.50;99.90
20680;DHT22;10499;47.494;7.608;2022-11-20T01:31:17;7.50;99.90
20680;DHT22;10499;47.494;7.608;2022-11-20T01:33:43;7.50;99.90
20680;DHT22;10499;47.494;7.608;2022-11-20T01:36:11;7.50;99.90
20680;DHT22;10499;47.494;7.608;2022-11-20T01:38:37;7.50;99.90
20680;DHT22;10499;47.494;7.608;2022-11-20T01:41:03;7.50;99.90
20680;DHT22;10499;47.494;7.608;2022-11-20T01:43:29;7.50;99.90
20680;DHT22;10499;47.494;7.608;2022-11-20T01:46:18;7.50;99.90
20680;DHT22;10499;47.494;7.608;2022-11-20T01:49:02;7.50;99.90
20680;DHT22;10499;47.494;7.608;2022-11-20T01:52:10;7.40;99.90
20680;DHT22;10499;47.494;7.608;2022-11-20T01:54:37;7.40;99.90
20680;DHT22;10499;47.494;7.608;2022-11-20T01:57:04;7.30;99.90
20680;DHT22;10499;47.494;7.608;2022-11-20T01:59:31;7.30;99.90
20680;DHT22;10499;47.494;7.608;2022-11-20T02:01:57;7.40;99.90
20680;DHT22;10499;47.494;7.608;2022-11-20T02:04:24;7.40;99.90
20680;DHT22;10499;47.494;7.608;2022-11-20T02:07:00;7.50;99.90
20680;DHT22;10499;47.494;7.608;2022-11-20T02:09:28;7.50;99.90
20680;DHT22;10499;47.494;7.608;2022-11-20T02:11:54;7.50;99.90
20680;DHT22;10499;47.494;7.608;2022-11-20T02:14:21;7.50;99.90
20680;DHT22;10499;47.494;7.608;2022-11-20T02:16:48;7.50;99.90
20680;DHT22;10499;47.494;7.608;2022-11-20T02:19:24;7.50;99.90
20680;DHT22;10499;47.494;7.608;2022-11-20T02:22:26;7.40;99.90
20680;DHT22;10499;47.494;7.608;2022-11-20T02:24:53;7.40;99.90
20680;DHT22;10499;47.494;7.608;2022-11-20T02:27:19;7.30;99.90
20680;DHT22;10499;47.494;7.608;2022-11-20T02:30:02;7.30;99.90
20680;DHT22;10499;47.494;7.608;2022-11-20T02:32:35;7.30;99.90
20680;DHT22;10499;47.494;7.608;2022-11-20T02:35:09;7.30;99.90
20680;DHT22;10499;47.494;7.608;2022-11-20T02:37:38;7.40;99.90
20680;DHT22;10499;47.494;7.608;2022-11-20T02:40:04;7.40;99.90
20680;DHT22;10499;47.494;7.608;2022-11-20T02:42:30;7.40;99.90
20680;DHT22;10499;47.494;7.608;2022-11-20T02:44:56;7.40;99.90
20680;DHT22;10499;47.494;7.608;2022-11-20T02:47:21;7.30;99.90
20680;DHT22;10499;47.494;7.608;2022-11-20T02:49:47;7.30;99.90
20680;DHT22;10499;47.494;7.608;2022-11-20T02:52:13;7.30;99.90
20680;DHT22;10499;47.494;7.608;2022-11-20T02:54:38;7.20;99.90
20680;DHT22;10499;47.494;7.608;2022-11-20T02:57:04;7.20;99.90
20680;DHT22;10499;47.494;7.608;2022-11-20T02:59:29;7.30;99.90
20680;DHT22;10499;47.494;7.608;2022-11-20T03:01:55;7.40;99.90
20680;DHT22;10499;47.494;7.608;2022-11-20T03:04:21;7.40;99.90
20680;DHT22;10499;47.494;7.608;2022-11-20T03:06:46;7.40;99.90
20680;DHT22;10499;47.494;7.608;2022-11-20T03:09:12;7.40;99.90
20680;DHT22;10499;47.494;7.608;2022-11-20T03:11:38;7.40;99.90
20680;DHT22;10499;47.494;7.608;2022-11-20T03:14:04;7.50;99.90
20680;DHT22;10499;47.494;7.608;2022-11-20T03:16:31;7.60;99.90
20680;DHT22;10499;47.494;7.608;2022-11-20T03:18:57;7.60;99.90
20680;DHT22;10499;47.494;7.608;2022-11-20T03:21:22;7.60;99.90
20680;DHT22;10499;47.494;7.608;2022-11-20T03:23:48;7.60;99.90
20680;DHT22;10499;47.494;7.608;2022-11-20T03:26:17;7.60;99.90
20680;DHT22;10499;47.494;7.608;2022-11-20T03:28:55;7.50;99.90
20680;DHT22;10499;47.494;7.608;2022-11-20T03:31:23;7.40;99.90
20680;DHT22;10499;47.494;7.608;2022-11-20T03:33:49;7.40;99.90
20680;DHT22;10499;47.494;7.608;2022-11-20T03:36:17;7.30;99.90
20680;DHT22;10499;47.494;7.608;2022-11-20T03:38:43;7.30;99.90
20680;DHT22;10499;47.494;7.608;2022-11-20T03:41:11;7.40;99.90
20680;DHT22;10499;47.494;7.608;2022-11-20T03:43:37;7.30;99.90
20680;DHT22;10499;47.494;7.608;2022-11-20T03:46:03;7.30;99.90
20680;DHT22;10499;47.494;7.608;2022-11-20T03:48:30;7.30;99.90
20680;DHT22;10499;47.494;7.608;2022-11-20T03:51:42;7.40;99.90
20680;DHT22;10499;47.494;7.608;2022-11-20T03:54:04;7.30;99.90
20680;DHT22;10499;47.494;7.608;2022-11-20T03:56:31;7.40;99.90
20680;DHT22;10499;47.494;7.608;2022-11-20T03:58:57;7.50;99.90
20680;DHT22;10499;47.494;7.608;2022-11-20T04:01:25;7.50;99.90
20680;DHT22;10499;47.494;7.608;2022-11-20T04:03:53;7.50;99.90
20680;DHT22;10499;47.494;7.608;2022-11-20T04:06:21;7.50;99.90
20680;DHT22;10499;47.494;7.608;2022-11-20T04:08:47;7.50;99.90
20680;DHT22;10499;47.494;7.608;2022-11-20T04:11:16;7.60;99.90
20680;DHT22;10499;47.494;7.608;2022-11-20T04:13:45;7.50;99.90
20680;DHT22;10499;47.494;7.608;2022-11-20T04:16:11;7.50;99.90
20680;DHT22;10499;47.494;7.608;2022-11-20T04:18:37;7.40;99.90
20680;DHT22;10499;47.494;7.608;2022-11-20T04:21:04;7.50;99.90
20680;DHT22;10499;47.494;7.608;2022-11-20T04:23:30;7.40;99.90
20680;DHT22;10499;47.494;7.608;2022-11-20T04:26:02;7.40;99.90
20680;DHT22;10499;47.494;7.608;2022-11-20T04:28:28;7.30;99.90
20680;DHT22;10499;47.494;7.608;2022-11-20T04:30:53;7.30;99.90
20680;DHT22;10499;47.494;7.608;2022-11-20T04:33:19;7.30;99.90
20680;DHT22;10499;47.494;7.608;2022-11-20T04:35:47;7.30;99.90
20680;DHT22;10499;47.494;7.608;2022-11-20T04:38:13;7.20;99.90
20680;DHT22;10499;47.494;7.608;2022-11-20T04:40:38;7.20;99.90
20680;DHT22;10499;47.494;7.608;2022-11-20T04:43:04;7.20;99.90
20680;DHT22;10499;47.494;7.608;2022-11-20T04:45:30;7.20;99.90
20680;DHT22;10499;47.494;7.608;2022-11-20T04:47:55;7.20;99.90
20680;DHT22;10499;47.494;7.608;2022-11-20T04:50:21;7.10;99.90
20680;DHT22;10499;47.494;7.608;2022-11-20T04:52:47;7.00;99.90
20680;DHT22;10499;47.494;7.608;2022-11-20T04:55:12;6.90;99.90
20680;DHT22;10499;47.494;7.608;2022-11-20T04:57:38;6.90;99.90
20680;DHT22;10499;47.494;7.608;2022-11-20T05:00:04;6.90;99.90
20680;DHT22;10499;47.494;7.608;2022-11-20T05:02:31;6.90;99.90
20680;DHT22;10499;47.494;7.608;2022-11-20T05:04:57;6.90;99.90
20680;DHT22;10499;47.494;7.608;2022-11-20T05:07:22;7.00;99.90
20680;DHT22;10499;47.494;7.608;2022-11-20T05:09:48;6.90;99.90
20680;DHT22;10499;47.494;7.608;2022-11-20T05:12:13;6.90;99.90
20680;DHT22;10499;47.494;7.608;2022-11-20T05:14:39;6.90;99.90
20680;DHT22;10499;47.494;7.608;2022-11-20T05:17:04;6.90;99.90
20680;DHT22;10499;47.494;7.608;2022-11-20T05:19:30;6.90;99.90
20680;DHT22;10499;47.494;7.608;2022-11-20T05:21:56;6.90;99.90
20680;DHT22;10499;47.494;7.608;2022-11-20T05:24:21;6.90;99.90
20680;DHT22;10499;47.494;7.608;2022-11-20T05:26:47;6.80;99.90
20680;DHT22;10499;47.494;7.608;2022-11-20T05:29:13;6.80;99.90
20680;DHT22;10499;47.494;7.608;2022-11-20T05:31:40;6.80;99.90
20680;DHT22;10499;47.494;7.608;2022-11-20T05:34:06;6.80;99.90
20680;DHT22;10499;47.494;7.608;2022-11-20T05:36:32;6.80;99.90
20680;DHT22;10499;47.494;7.608;2022-11-20T05:38:57;6.80;99.90
20680;DHT22;10499;47.494;7.608;2022-11-20T05:41:23;6.80;99.90
20680;DHT22;10499;47.494;7.608;2022-11-20T05:43:50;6.80;99.90
20680;DHT22;10499;47.494;7.608;2022-11-20T05:46:19;6.90;99.90
20680;DHT22;10499;47.494;7.608;2022-11-20T05:48:45;6.90;99.90
20680;DHT22;10499;47.494;7.608;2022-11-20T05:51:13;7.00;99.90
20680;DHT22;10499;47.494;7.608;2022-11-20T05:53:39;7.00;99.90
20680;DHT22;10499;47.494;7.608;2022-11-20T05:56:15;7.00;99.90
20680;DHT22;10499;47.494;7.608;2022-11-20T05:58:40;7.00;99.90
20680;DHT22;10499;47.494;7.608;2022-11-20T06:01:09;7.10;99.90
20680;DHT22;10499;47.494;7.608;2022-11-20T06:03:35;7.10;99.90
20680;DHT22;10499;47.494;7.608;2022-11-20T06:06:01;7.10;99.90
20680;DHT22;10499;47.494;7.608;2022-11-20T06:08:27;7.10;99.90
20680;DHT22;10499;47.494;7.608;2022-11-20T06:10:53;7.10;99.90
20680;DHT22;10499;47.494;7.608;2022-11-20T06:13:19;7.00;99.90
20680;DHT22;10499;47.494;7.608;2022-11-20T06:15:51;7.00;99.90
20680;DHT22;10499;47.494;7.608;2022-11-20T06:18:17;7.00;99.90
20680;DHT22;10499;47.494;7.608;2022-11-20T06:20:43;7.00;99.90
20680;DHT22;10499;47.494;7.608;2022-11-20T06:23:09;7.00;99.90
20680;DHT22;10499;47.494;7.608;2022-11-20T06:25:39;7.10;99.90
20680;DHT22;10499;47.494;7.608;2022-11-20T06:28:05;7.10;99.90
20680;DHT22;10499;47.494;7.608;2022-11-20T06:30:30;7.10;99.90
20680;DHT22;10499;47.494;7.608;2022-11-20T06:32:56;7.10;99.90
20680;DHT22;10499;47.494;7.608;2022-11-20T06:35:22;7.10;99.90
20680;DHT22;10499;47.494;7.608;2022-11-20T06:37:50;7.10;99.90
20680;DHT22;10499;47.494;7.608;2022-11-20T06:40:15;7.20;99.90
20680;DHT22;10499;47.494;7.608;2022-11-20T06:42:41;7.10;99.90
20680;DHT22;10499;47.494;7.608;2022-11-20T06:45:07;7.10;99.90
20680;DHT22;10499;47.494;7.608;2022-11-20T06:47:33;7.10;99.90
20680;DHT22;10499;47.494;7.608;2022-11-20T06:49:59;7.10;99.90
20680;DHT22;10499;47.494;7.608;2022-11-20T06:52:24;7.10;99.90
20680;DHT22;10499;47.494;7.608;2022-11-20T06:54:50;7.10;99.90
20680;DHT22;10499;47.494;7.608;2022-11-20T06:57:16;7.10;99.90
20680;DHT22;10499;47.494;7.608;2022-11-20T06:59:41;7.10;99.90
20680;DHT22;10499;47.494;7.608;2022-11-20T07:02:13;7.00;99.90
20680;DHT22;10499;47.494;7.608;2022-11-20T07:04:39;7.00;99.90
20680;DHT22;10499;47.494;7.608;2022-11-20T07:07:05;7.10;99.90
20680;DHT22;10499;47.494;7.608;2022-11-20T07:09:31;7.10;99.90
20680;DHT22;10499;47.494;7.608;2022-11-20T07:11:57;7.10;99.90
20680;DHT22;10499;47.494;7.608;2022-11-20T07:14:23;7.20;99.90
20680;DHT22;10499;47.494;7.608;2022-11-20T07:16:49;7.20;99.90
20680;DHT22;10499;47.494;7.608;2022-11-20T07:19:14;7.30;99.90
20680;DHT22;10499;47.494;7.608;2022-11-20T07:21:40;7.30;99.90
20680;DHT22;10499;47.494;7.608;2022-11-20T07:24:06;7.40;99.90
20680;DHT22;10499;47.494;7.608;2022-11-20T07:26:31;7.50;99.90
20680;DHT22;10499;47.494;7.608;2022-11-20T07:28:57;7.60;99.90
20680;DHT22;10499;47.494;7.608;2022-11-20T07:31:22;7.70;99.90
20680;DHT22;10499;47.494;7.608;2022-11-20T07:33:48;7.60;99.90
20680;DHT22;10499;47.494;7.608;2022-11-20T07:36:14;7.60;99.90
20680;DHT22;10499;47.494;7.608;2022-11-20T07:38:39;8.10;99.90
20680;DHT22;10499;47.494;7.608;2022-11-20T07:41:05;7.90;99.90
20680;DHT22;10499;47.494;7.608;2022-11-20T07:43:31;7.70;99.90
20680;DHT22;10499;47.494;7.608;2022-11-20T07:45:57;7.70;99.90
20680;DHT22;10499;47.494;7.608;2022-11-20T07:48:24;7.80;99.90
20680;DHT22;10499;47.494;7.608;2022-11-20T07:50:56;7.80;99.90
20680;DHT22;10499;47.494;7.608;2022-11-20T07:53:22;7.90;99.90
20680;DHT22;10499;47.494;7.608;2022-11-20T07:55:48;8.20;99.90
20680;DHT22;10499;47.494;7.608;2022-11-20T07:58:14;8.40;99.90
20680;DHT22;10499;47.494;7.608;2022-11-20T08:00:40;8.40;99.90
20680;DHT22;10499;47.494;7.608;2022-11-20T08:03:06;8.90;99.90
20680;DHT22;10499;47.494;7.608;2022-11-20T08:05:32;10.70;94.50
20680;DHT22;10499;47.494;7.608;2022-11-20T08:07:58;9.50;98.30
20680;DHT22;10499;47.494;7.608;2022-11-20T08:10:24;8.80;99.90
20680;DHT22;10499;47.494;7.608;2022-11-20T08:12:51;8.70;99.90
20680;DHT22;10499;47.494;7.608;2022-11-20T08:15:36;8.60;99.90
20680;DHT22;10499;47.494;7.608;2022-11-20T08:18:10;8.80;99.90
20680;DHT22;10499;47.494;7.608;2022-11-20T08:20:37;9.40;99.80
20680;DHT22;10499;47.494;7.608;2022-11-20T08:23:05;9.20;99.90
20680;DHT22;10499;47.494;7.608;2022-11-20T08:25:31;9.00;99.90
20680;DHT22;10499;47.494;7.608;2022-11-20T08:27:59;8.90;99.90
20680;DHT22;10499;47.494;7.608;2022-11-20T08:30:25;8.70;99.90
20680;DHT22;10499;47.494;7.608;2022-11-20T08:32:51;8.50;99.90
20680;DHT22;10499;47.494;7.608;2022-11-20T08:35:17;8.60;99.90
20680;DHT22;10499;47.494;7.608;2022-11-20T08:37:46;8.60;99.90
20680;DHT22;10499;47.494;7.608;2022-11-20T08:40:12;8.60;99.90
20680;DHT22;10499;47.494;7.608;2022-11-20T08:42:46;8.60;99.90
20680;DHT22;10499;47.494;7.608;2022-11-20T08:45:11;8.70;99.90
20680;DHT22;10499;47.494;7.608;2022-11-20T08:47:37;8.70;99.90
20680;DHT22;10499;47.494;7.608;2022-11-20T08:50:03;8.70;99.90
20680;DHT22;10499;47.494;7.608;2022-11-20T08:52:28;8.80;99.90
20680;DHT22;10499;47.494;7.608;2022-11-20T08:54:54;8.90;99.90
20680;DHT22;10499;47.494;7.608;2022-11-20T08:57:19;8.70;99.90
20680;DHT22;10499;47.494;7.608;2022-11-20T08:59:45;8.70;99.90
20680;DHT22;10499;47.494;7.608;2022-11-20T09:02:11;8.70;99.90
20680;DHT22;10499;47.494;7.608;2022-11-20T09:04:37;8.70;99.90
20680;DHT22;10499;47.494;7.608;2022-11-20T09:07:03;8.70;99.90
20680;DHT22;10499;47.494;7.608;2022-11-20T09:09:28;8.70;99.90
20680;DHT22;10499;47.494;7.608;2022-11-20T09:11:54;8.60;99.90
20680;DHT22;10499;47.494;7.608;2022-11-20T09:14:19;8.60;99.90
20680;DHT22;10499;47.494;7.608;2022-11-20T09:16:46;8.70;99.90
20680;DHT22;10499;47.494;7.608;2022-11-20T09:19:12;8.70;99.90
20680;DHT22;10499;47.494;7.608;2022-11-20T09:21:37;8.80;99.90
20680;DHT22;10499;47.494;7.608;2022-11-20T09:24:04;8.80;99.90
20680;DHT22;10499;47.494;7.608;2022-11-20T09:26:30;8.90;99.90
20680;DHT22;10499;47.494;7.608;2022-11-20T09:28:55;8.80;99.90
20680;DHT22;10499;47.494;7.608;2022-11-20T09:31:25;8.80;99.90
20680;DHT22;10499;47.494;7.608;2022-11-20T09:33:51;9.10;99.90
20680;DHT22;10499;47.494;7.608;2022-11-20T09:36:17;9.20;99.90
20680;DHT22;10499;47.494;7.608;2022-11-20T09:38:45;9.20;99.90
20680;DHT22;10499;47.494;7.608;2022-11-20T09:47:36;9.80;97.00
20680;DHT22;10499;47.494;7.608;2022-11-20T09:50:14;9.80;96.50
20680;DHT22;10499;47.494;7.608;2022-11-20T09:55:29;10.90;93.40
20680;DHT22;10499;47.494;7.608;2022-11-20T09:57:56;11.10;92.80
20680;DHT22;10499;47.494;7.608;2022-11-20T10:00:23;11.50;92.90
20680;DHT22;10499;47.494;7.608;2022-11-20T10:03:00;11.40;91.50
20680;DHT22;10499;47.494;7.608;2022-11-20T10:05:31;11.30;91.70
20680;DHT22;10499;47.494;7.608;2022-11-20T10:08:23;11.30;91.70
20680;DHT22;10499;47.494;7.608;2022-11-20T10:11:00;11.20;92.00
20680;DHT22;10499;47.494;7.608;2022-11-20T10:27:08;11.10;91.70
20680;DHT22;10499;47.494;7.608;2022-11-20T10:29:42;10.80;92.60
20680;DHT22;10499;47.494;7.608;2022-11-20T10:32:18;10.80;93.00
20680;DHT22;10499;47.494;7.608;2022-11-20T10:34:54;10.70;93.60
20680;DHT22;10499;47.494;7.608;2022-11-20T10:37:26;10.50;93.20
20680;DHT22;10499;47.494;7.608;2022-11-20T10:42:46;10.50;93.10
20680;DHT22;10499;47.494;7.608;2022-11-20T10:45:27;10.50;93.20
20680;DHT22;10499;47.494;7.608;2022-11-20T10:48:10;10.70;93.60
20680;DHT22;10499;47.494;7.608;2022-11-20T10:50:49;11.00;93.70
20680;DHT22;10499;47.494;7.608;2022-11-20T10:53:33;11.00;93.10
20680;DHT22;10499;47.494;7.608;2022-11-20T10:56:29;11.10;93.20
20680;DHT22;10499;47.494;7.608;2022-11-20T10:59:49;10.90;93.20
20680;DHT22;10499;47.494;7.608;2022-11-20T11:01:49;10.70;93.10
20680;DHT22;10499;47.494;7.608;2022-11-20T11:04:33;10.70;93.00
20680;DHT22;10499;47.494;7.608;2022-11-20T11:07:15;10.40;93.30
20680;DHT22;10499;47.494;7.608;2022-11-20T11:09:46;10.20;93.30
20680;DHT22;10499;47.494;7.608;2022-11-20T11:12:12;10.20;94.10
20680;DHT22;10499;47.494;7.608;2022-11-20T11:14:47;10.20;93.30
20680;DHT22;10499;47.494;7.608;2022-11-20T11:17:31;10.40;93.10
20680;DHT22;10499;47.494;7.608;2022-11-20T11:20:03;10.50;92.80
20680;DHT22;10499;47.494;7.608;2022-11-20T11:22:31;10.50;93.00
20680;DHT22;10499;47.494;7.608;2022-11-20T11:24:57;10.50;92.20
20680;DHT22;10499;47.494;7.608;2022-11-20T11:27:23;10.30;92.30
20680;DHT22;10499;47.494;7.608;2022-11-20T11:29:49;10.30;92.50
20680;DHT22;10499;47.494;7.608;2022-11-20T11:32:18;10.10;92.50
20680;DHT22;10499;47.494;7.608;2022-11-20T11:34:45;10.10;92.70
20680;DHT22;10499;47.494;7.608;2022-11-20T11:37:16;10.30;92.60
20680;DHT22;10499;47.494;7.608;2022-11-20T11:39:43;10.30;91.80
20680;DHT22;10499;47.494;7.608;2022-11-20T11:42:14;10.60;91.80
20680;DHT22;10499;47.494;7.608;2022-11-20T11:44:45;10.70;91.40
20680;DHT22;10499;47.494;7.608;2022-11-20T11:47:50;10.70;91.30
20680;DHT22;10499;47.494;7.608;2022-11-20T11:50:28;10.50;91.20
20680;DHT22;10499;47.494;7.608;2022-11-20T11:53:13;10.50;91.40
20680;DHT22;10499;47.494;7.608;2022-11-20T11:58:47;10.80;90.60
20680;DHT22;10499;47.494;7.608;2022-11-20T12:01:24;10.80;90.50
20680;DHT22;10499;47.494;7.608;2022-11-20T12:04:17;13.00;85.30
20680;DHT22;10499;47.494;7.608;2022-11-20T12:06:48;21.00;57.30
20680;DHT22;10499;47.494;7.608;2022-11-20T12:09:19;21.20;53.90
20680;DHT22;10499;47.494;7.608;2022-11-20T12:11:56;22.30;51.10
20680;DHT22;10499;47.494;7.608;2022-11-20T12:14:42;23.90;48.10
20680;DHT22;10499;47.494;7.608;2022-11-20T12:17:13;23.30;46.10
20680;DHT22;10499;47.494;7.608;2022-11-20T12:19:40;23.00;44.40
20680;DHT22;10499;47.494;7.608;2022-11-20T12:24:58;21.60;45.90
20680;DHT22;10499;47.494;7.608;2022-11-20T12:27:31;21.10;46.80
20680;DHT22;10499;47.494;7.608;2022-11-20T12:30:11;21.60;46.50
20680;DHT22;10499;47.494;7.608;2022-11-20T12:40:58;22.30;45.00
20680;DHT22;10499;47.494;7.608;2022-11-20T12:43:31;20.10;48.70
20680;DHT22;10499;47.494;7.608;2022-11-20T12:46:41;18.80;53.20
20680;DHT22;10499;47.494;7.608;2022-11-20T12:49:47;19.40;52.00
20680;DHT22;10499;47.494;7.608;2022-11-20T12:52:42;18.30;53.00
20680;DHT22;10499;47.494;7.608;2022-11-20T12:58:39;16.10;57.10
20680;DHT22;10499;47.494;7.608;2022-11-20T13:01:21;15.10;60.70
20680;DHT22;10499;47.494;7.608;2022-11-20T13:06:46;14.40;65.90
20680;DHT22;10499;47.494;7.608;2022-11-20T13:09:16;14.20;66.40
20680;DHT22;10499;47.494;7.608;2022-11-20T13:14:37;14.20;67.30
20680;DHT22;10499;47.494;7.608;2022-11-20T13:19:40;13.80;68.90
20680;DHT22;10499;47.494;7.608;2022-11-20T13:22:08;13.60;69.50
20680;DHT22;10499;47.494;7.608;2022-11-20T13:24:34;13.50;71.00
20680;DHT22;10499;47.494;7.608;2022-11-20T13:27:05;13.30;72.70
20680;DHT22;10499;47.494;7.608;2022-11-20T13:29:46;13.30;73.80
20680;DHT22;10499;47.494;7.608;2022-11-20T13:32:20;14.90;70.90
20680;DHT22;10499;47.494;7.608;2022-11-20T13:34:54;15.10;69.20
20680;DHT22;10499;47.494;7.608;2022-11-20T13:37:37;15.10;69.20
20680;DHT22;10499;47.494;7.608;2022-11-20T13:45:11;18.30;59.80
20680;DHT22;10499;47.494;7.608;2022-11-20T13:47:37;19.20;57.10
20680;DHT22;10499;47.494;7.608;2022-11-20T13:50:04;19.10;57.10
20680;DHT22;10499;47.494;7.608;2022-11-20T14:01:10;16.70;58.90
20680;DHT22;10499;47.494;7.608;2022-11-20T14:03:36;15.00;63.90
20680;DHT22;10499;47.494;7.608;2022-11-20T14:06:10;14.10;67.60
20680;DHT22;10499;47.494;7.608;2022-11-20T14:08:46;13.60;70.10
20680;DHT22;10499;47.494;7.608;2022-11-20T14:11:18;13.20;72.10
20680;DHT22;10499;47.494;7.608;2022-11-20T14:14:02;13.40;72.20
20680;DHT22;10499;47.494;7.608;2022-11-20T14:16:32;13.20;73.00
20680;DHT22;10499;47.494;7.608;2022-11-20T14:24:12;13.00;74.70
20680;DHT22;10499;47.494;7.608;2022-11-20T14:26:43;12.90;74.50
20680;DHT22;10499;47.494;7.608;2022-11-20T14:31:39;12.80;75.50
20680;DHT22;10499;47.494;7.608;2022-11-20T14:34:05;13.40;74.60
20680;DHT22;10499;47.494;7.608;2022-11-20T14:36:31;13.80;72.80
20680;DHT22;10499;47.494;7.608;2022-11-20T14:38:57;14.20;72.20
20680;DHT22;10499;47.494;7.608;2022-11-20T14:41:24;14.60;70.60
20680;DHT22;10499;47.494;7.608;2022-11-20T14:43:56;15.00;69.50
20680;DHT22;10499;47.494;7.608;2022-11-20T14:46:23;15.10;68.30
20680;DHT22;10499;47.494;7.608;2022-11-20T14:48:55;14.90;67.50
20680;DHT22;10499;47.494;7.608;2022-11-20T14:51:29;14.90;67.90
20680;DHT22;10499;47.494;7.608;2022-11-20T14:53:55;14.30;69.00
20680;DHT22;10499;47.494;7.608;2022-11-20T14:56:22;14.00;70.00
20680;DHT22;10499;47.494;7.608;2022-11-20T14:58:56;13.40;72.10
20680;DHT22;10499;47.494;7.608;2022-11-20T15:01:27;13.00;73.50
20680;DHT22;10499;47.494;7.608;2022-11-20T15:04:10;12.70;74.40
20680;DHT22;10499;47.494;7.608;2022-11-20T15:06:37;12.50;75.50
20680;DHT22;10499;47.494;7.608;2022-11-20T15:09:04;12.30;76.50
20680;DHT22;10499;47.494;7.608;2022-11-20T15:11:34;12.20;76.90
20680;DHT22;10499;47.494;7.608;2022-11-20T15:14:06;12.20;76.70
20680;DHT22;10499;47.494;7.608;2022-11-20T15:16:32;12.20;77.60
20680;DHT22;10499;47.494;7.608;2022-11-20T15:18:58;11.90;78.10
20680;DHT22;10499;47.494;7.608;2022-11-20T15:21:25;11.70;78.80
20680;DHT22;10499;47.494;7.608;2022-11-20T15:23:51;11.70;79.30
20680;DHT22;10499;47.494;7.608;2022-11-20T15:26:27;11.60;79.90
20680;DHT22;10499;47.494;7.608;2022-11-20T15:28:53;11.40;80.80
20680;DHT22;10499;47.494;7.608;2022-11-20T15:31:21;11.40;81.70
20680;DHT22;10499;47.494;7.608;2022-11-20T15:33:47;11.50;81.60
20680;DHT22;10499;47.494;7.608;2022-11-20T15:36:13;11.40;81.50
20680;DHT22;10499;47.494;7.608;2022-11-20T15:38:39;11.50;81.70
20680;DHT22;10499;47.494;7.608;2022-11-20T15:41:06;11.50;82.20
20680;DHT22;10499;47.494;7.608;2022-11-20T15:43:32;11.10;82.10
20680;DHT22;10499;47.494;7.608;2022-11-20T15:46:27;11.00;83.20
20680;DHT22;10499;47.494;7.608;2022-11-20T15:48:55;10.90;83.60
20680;DHT22;10499;47.494;7.608;2022-11-20T15:51:30;10.80;84.50
20680;DHT22;10499;47.494;7.608;2022-11-20T15:53:56;10.70;85.30
20680;DHT22;10499;47.494;7.608;2022-11-20T15:56:22;10.60;86.50
20680;DHT22;10499;47.494;7.608;2022-11-20T15:58:48;10.70;88.50
20680;DHT22;10499;47.494;7.608;2022-11-20T16:01:17;10.70;90.10
20680;DHT22;10499;47.494;7.608;2022-11-20T16:03:43;10.40;91.00
20680;DHT22;10499;47.494;7.608;2022-11-20T16:06:08;10.30;90.80
20680;DHT22;10499;47.494;7.608;2022-11-20T16:08:34;10.30;91.60
20680;DHT22;10499;47.494;7.608;2022-11-20T16:11:00;10.30;92.30
20680;DHT22;10499;47.494;7.608;2022-11-20T16:13:26;10.30;93.10
20680;DHT22;10499;47.494;7.608;2022-11-20T16:16:22;10.20;93.10
20680;DHT22;10499;47.494;7.608;2022-11-20T16:18:48;10.20;93.10
20680;DHT22;10499;47.494;7.608;2022-11-20T16:21:15;10.10;93.10
20680;DHT22;10499;47.494;7.608;2022-11-20T16:23:41;10.20;94.10
20680;DHT22;10499;47.494;7.608;2022-11-20T16:26:12;10.10;93.60
20680;DHT22;10499;47.494;7.608;2022-11-20T16:28:38;10.20;93.90
20680;DHT22;10499;47.494;7.608;2022-11-20T16:31:18;10.30;95.40
20680;DHT22;10499;47.494;7.608;2022-11-20T16:33:52;10.20;98.40
20680;DHT22;10499;47.494;7.608;2022-11-20T16:36:19;10.10;99.00
20680;DHT22;10499;47.494;7.608;2022-11-20T16:38:45;10.10;99.90
20680;DHT22;10499;47.494;7.608;2022-11-20T16:41:11;10.10;98.80
20680;DHT22;10499;47.494;7.608;2022-11-20T16:43:50;9.90;98.30
20680;DHT22;10499;47.494;7.608;2022-11-20T16:46:19;9.70;99.90
20680;DHT22;10499;47.494;7.608;2022-11-20T16:48:49;9.50;99.90
20680;DHT22;10499;47.494;7.608;2022-11-20T16:51:17;9.50;99.90
20680;DHT22;10499;47.494;7.608;2022-11-20T16:53:42;9.50;99.90
20680;DHT22;10499;47.494;7.608;2022-11-20T16:56:16;9.50;99.90
20680;DHT22;10499;47.494;7.608;2022-11-20T16:58:47;9.40;99.90
20680;DHT22;10499;47.494;7.608;2022-11-20T17:01:15;9.40;99.90
20680;DHT22;10499;47.494;7.608;2022-11-20T17:03:43;9.40;99.90
20680;DHT22;10499;47.494;7.608;2022-11-20T17:06:17;9.50;99.90
20680;DHT22;10499;47.494;7.608;2022-11-20T17:08:44;9.50;99.90
20680;DHT22;10499;47.494;7.608;2022-11-20T17:11:12;9.40;99.90